createdAt,value
2018-02-14T00:02:10.397Z,22.57
2018-02-14T00:04:38.526Z,24.23
2018-02-14T00:07:08.435Z,20.07
2018-02-14T00:09:37.484Z,17.30
2018-02-14T00:12:06.606Z,20.05
2018-02-14T00:14:35.213Z,18.10
2018-02-14T00:17:04.334Z,19.33
2018-02-14T00:19:33.153Z,18.73
2018-02-14T00:22:00.868Z,16.37
2018-02-14T00:24:30.253Z,16.37
2018-02-14T00:27:00.095Z,16.07
2018-02-14T00:29:30.197Z,14.00
2018-02-14T00:31:59.648Z,13.30
2018-02-14T00:34:28.370Z,13.83
2018-02-14T00:36:57.479Z,13.17
2018-02-14T00:39:25.856Z,15.60
2018-02-14T00:41:53.557Z,18.60
2018-02-14T00:44:22.312Z,15.10
2018-02-14T00:46:52.780Z,14.93
2018-02-14T00:49:20.609Z,14.27
2018-02-14T00:51:48.146Z,16.50
2018-02-14T00:54:15.697Z,16.63
2018-02-14T00:56:43.380Z,14.07
2018-02-14T00:59:10.926Z,15.03
2018-02-14T01:01:38.503Z,20.23
2018-02-14T01:04:06.106Z,17.20
2018-02-14T01:06:33.659Z,16.53
2018-02-14T01:09:01.284Z,22.63
2018-02-14T01:11:28.844Z,17.93
2018-02-14T01:13:56.386Z,16.60
2018-02-14T01:16:23.966Z,21.50
2018-02-14T01:18:51.550Z,17.90
2018-02-14T01:21:20.099Z,14.10
2018-02-14T01:23:47.763Z,22.78
2018-02-14T01:26:15.327Z,17.55
2018-02-14T01:28:42.982Z,20.87
2018-02-14T01:31:10.548Z,17.07
2018-02-14T01:33:38.106Z,15.47
2018-02-14T01:36:05.633Z,13.90
2018-02-14T01:38:33.192Z,14.70
2018-02-14T01:41:00.779Z,17.23
2018-02-14T01:43:28.310Z,15.47
2018-02-14T01:45:56.012Z,11.10
2018-02-14T01:48:23.541Z,13.90
2018-02-14T01:50:51.099Z,19.57
2018-02-14T01:53:18.678Z,16.83
2018-02-14T01:55:46.275Z,15.90
2018-02-14T01:58:13.807Z,16.47
2018-02-14T02:00:41.458Z,14.37
2018-02-14T02:03:09.027Z,13.10
2018-02-14T02:05:36.563Z,17.35
2018-02-14T02:08:04.137Z,14.10
2018-02-14T02:10:31.697Z,16.20
2018-02-14T02:12:59.243Z,19.15
2018-02-14T02:15:26.813Z,22.57
2018-02-14T02:17:54.476Z,17.40
2018-02-14T02:20:21.997Z,13.77
2018-02-14T02:22:49.651Z,14.68
2018-02-14T02:25:17.178Z,16.93
2018-02-14T02:27:44.703Z,17.30
2018-02-14T02:30:12.788Z,15.18
2018-02-14T02:32:40.313Z,17.27
2018-02-14T02:35:07.863Z,16.97
2018-02-14T02:37:35.465Z,15.60
2018-02-14T02:40:14.810Z,17.53
2018-02-14T02:42:43.117Z,18.77
2018-02-14T02:45:10.672Z,16.53
2018-02-14T02:47:38.202Z,17.47
2018-02-14T02:50:05.774Z,16.17
2018-02-14T02:52:33.302Z,16.57
2018-02-14T02:55:00.830Z,12.07
2018-02-14T02:57:28.383Z,11.10
2018-02-14T02:59:55.902Z,12.97
2018-02-14T03:02:23.455Z,13.10
2018-02-14T03:04:50.988Z,12.43
2018-02-14T03:07:18.542Z,14.33
2018-02-14T03:09:46.071Z,11.07
2018-02-14T03:12:13.644Z,11.73
2018-02-14T03:14:41.174Z,12.20
2018-02-14T03:17:08.804Z,15.17
2018-02-14T03:19:36.362Z,14.03
2018-02-14T03:22:03.922Z,19.87
2018-02-14T03:24:31.484Z,15.13
2018-02-14T03:26:59.038Z,14.83
2018-02-14T03:29:26.614Z,15.13
2018-02-14T03:31:54.168Z,15.18
2018-02-14T03:34:21.777Z,14.07
2018-02-14T03:36:49.569Z,16.48
2018-02-14T03:39:17.120Z,13.97
2018-02-14T03:41:44.650Z,13.33
2018-02-14T03:44:12.270Z,13.60
2018-02-14T03:46:39.827Z,13.27
2018-02-14T03:49:07.380Z,18.87
2018-02-14T03:51:35.044Z,15.37
2018-02-14T03:54:02.550Z,24.70
2018-02-14T03:56:30.163Z,18.10
2018-02-14T03:58:57.687Z,17.97
2018-02-14T04:01:25.291Z,22.62
2018-02-14T04:03:52.842Z,16.47
2018-02-14T04:06:20.397Z,18.42
2018-02-14T04:08:48.060Z,14.30
2018-02-14T04:11:15.598Z,15.97
2018-02-14T04:13:44.178Z,14.90
2018-02-14T04:16:11.703Z,16.50
2018-02-14T04:18:39.321Z,16.77
2018-02-14T04:21:06.832Z,19.47
2018-02-14T04:23:34.442Z,14.30
2018-02-14T04:26:02.013Z,19.77
2018-02-14T04:28:29.632Z,20.37
2018-02-14T04:30:57.221Z,16.93
2018-02-14T04:33:24.747Z,18.70
2018-02-14T04:35:52.294Z,17.30
2018-02-14T04:38:19.823Z,29.50
2018-02-14T04:40:47.358Z,19.07
2018-02-14T04:43:14.927Z,20.87
2018-02-14T04:45:42.475Z,17.13
2018-02-14T04:48:10.137Z,18.67
2018-02-14T04:50:37.684Z,20.63
2018-02-14T04:53:05.254Z,16.23
2018-02-14T04:55:32.788Z,20.13
2018-02-14T04:58:00.486Z,16.23
2018-02-14T05:00:28.045Z,20.77
2018-02-14T05:02:55.569Z,21.63
2018-02-14T05:05:23.223Z,19.02
2018-02-14T05:07:50.819Z,15.13
2018-02-14T05:10:18.478Z,20.13
2018-02-14T05:12:46.007Z,18.70
2018-02-14T05:15:13.558Z,16.63
2018-02-14T05:17:41.086Z,17.47
2018-02-14T05:20:08.717Z,20.43
2018-02-14T05:22:36.320Z,25.17
2018-02-14T05:25:03.894Z,16.67
2018-02-14T05:27:31.419Z,23.70
2018-02-14T05:29:59.142Z,24.80
2018-02-14T05:32:26.699Z,19.47
2018-02-14T05:34:54.277Z,19.40
2018-02-14T05:37:21.939Z,19.13
2018-02-14T05:39:49.496Z,20.77
2018-02-14T05:42:17.160Z,20.67
2018-02-14T05:44:45.235Z,21.60
2018-02-14T05:47:12.815Z,23.73
2018-02-14T05:49:40.350Z,23.47
2018-02-14T05:52:07.888Z,26.33
2018-02-14T05:54:35.444Z,24.87
2018-02-14T05:57:02.973Z,21.47
2018-02-14T05:59:30.598Z,22.53
2018-02-14T06:01:58.128Z,25.17
2018-02-14T06:04:25.707Z,22.73
2018-02-14T06:06:53.264Z,21.77
2018-02-14T06:09:20.930Z,19.53
2018-02-14T06:11:48.486Z,28.47
2018-02-14T06:14:16.149Z,26.47
2018-02-14T06:16:43.664Z,22.83
2018-02-14T06:19:11.216Z,23.77
2018-02-14T06:21:38.827Z,22.67
2018-02-14T06:24:06.386Z,20.70
2018-02-14T06:26:34.049Z,22.00
2018-02-14T06:29:01.574Z,20.60
2018-02-14T06:31:29.178Z,21.12
2018-02-14T06:33:56.699Z,19.87
2018-02-14T06:36:24.310Z,20.73
2018-02-14T06:38:51.847Z,22.90
2018-02-14T06:41:19.362Z,29.67
2018-02-14T06:43:47.679Z,25.73
2018-02-14T06:46:15.235Z,23.80
2018-02-14T06:48:42.842Z,27.07
2018-02-14T06:51:10.462Z,26.90
2018-02-14T06:53:38.026Z,27.00
2018-02-14T06:56:05.585Z,28.70
2018-02-14T06:58:33.153Z,29.90
2018-02-14T07:01:00.731Z,27.13
2018-02-14T07:03:28.305Z,25.43
2018-02-14T07:05:55.914Z,26.27
2018-02-14T07:08:23.479Z,32.10
2018-02-14T07:10:51.187Z,47.20
2018-02-14T07:13:19.417Z,29.70
2018-02-14T07:15:47.078Z,32.17
2018-02-14T07:18:14.594Z,32.27
2018-02-14T07:20:42.196Z,30.20
2018-02-14T07:23:09.723Z,26.40
2018-02-14T07:25:37.330Z,27.30
2018-02-14T07:28:04.855Z,23.37
2018-02-14T07:30:32.380Z,28.27
2018-02-14T07:32:59.929Z,24.93
2018-02-14T07:35:27.462Z,31.93
2018-02-14T07:37:55.021Z,29.50
2018-02-14T07:40:22.540Z,25.73
2018-02-14T07:42:50.418Z,29.75
2018-02-14T07:45:17.997Z,24.93
2018-02-14T07:47:45.554Z,26.73
2018-02-14T07:50:13.112Z,32.90
2018-02-14T07:52:40.674Z,32.40
2018-02-14T07:55:08.310Z,35.93
2018-02-14T07:57:35.862Z,29.60
2018-02-14T08:00:03.412Z,27.95
2018-02-14T08:02:30.934Z,24.43
2018-02-14T08:04:58.571Z,26.67
2018-02-14T08:07:26.094Z,31.13
2018-02-14T08:09:53.689Z,31.40
2018-02-14T08:12:23.722Z,30.47
2018-02-14T08:14:51.252Z,32.13
2018-02-14T08:17:18.850Z,24.10
2018-02-14T08:19:46.384Z,25.70
2018-02-14T08:22:13.930Z,22.13
2018-02-14T08:24:41.454Z,22.90
2018-02-14T08:27:09.006Z,22.87
2018-02-14T08:29:36.534Z,23.67
2018-02-14T08:32:04.188Z,23.93
2018-02-14T08:34:31.739Z,25.67
2018-02-14T08:36:59.300Z,20.87
2018-02-14T08:39:27.282Z,23.50
2018-02-14T08:41:54.897Z,25.03
2018-02-14T08:44:22.451Z,23.42
2018-02-14T08:46:50.014Z,29.00
2018-02-14T08:49:18.880Z,22.83
2018-02-14T08:51:46.410Z,23.53
2018-02-14T08:54:14.722Z,21.97
2018-02-14T08:56:50.164Z,21.77
2018-02-14T08:59:18.183Z,22.63
2018-02-14T09:01:45.759Z,20.50
2018-02-14T09:04:13.297Z,19.77
2018-02-14T09:06:40.971Z,19.97
2018-02-14T09:09:08.839Z,23.23
2018-02-14T09:11:36.394Z,22.73
2018-02-14T09:14:03.926Z,19.77
2018-02-14T09:16:32.208Z,23.42
2018-02-14T09:19:02.367Z,22.90
2018-02-14T09:21:30.343Z,23.60
2018-02-14T09:23:59.285Z,23.60
2018-02-14T09:26:26.869Z,18.93
2018-02-14T09:28:54.442Z,19.80
2018-02-14T09:31:22.533Z,25.95
2018-02-14T09:33:50.123Z,20.70
2018-02-14T09:36:17.720Z,20.67
2018-02-14T09:38:45.278Z,19.90
2018-02-14T09:41:13.000Z,21.13
2018-02-14T09:43:40.607Z,20.63
2018-02-14T09:46:08.130Z,23.33
2018-02-14T09:48:35.724Z,22.17
2018-02-14T09:51:03.610Z,27.33
2018-02-14T09:53:31.256Z,22.90
2018-02-14T09:55:58.823Z,23.37
2018-02-14T09:58:26.366Z,21.33
2018-02-14T10:00:53.917Z,20.80
2018-02-14T10:03:22.496Z,27.55
2018-02-14T10:05:50.054Z,20.27
2018-02-14T10:08:17.575Z,22.50
2018-02-14T10:10:45.206Z,22.80
2018-02-14T10:13:12.735Z,23.87
2018-02-14T10:15:40.308Z,23.47
2018-02-14T10:18:07.858Z,27.10
2018-02-14T10:20:35.385Z,22.30
2018-02-14T10:23:02.967Z,22.53
2018-02-14T10:25:30.545Z,22.05
2018-02-14T10:27:58.095Z,20.80
2018-02-14T10:30:25.622Z,20.33
2018-02-14T10:32:53.173Z,20.87
2018-02-14T10:35:20.749Z,20.67
2018-02-14T10:37:48.282Z,22.80
2018-02-14T10:40:15.830Z,16.13
2018-02-14T10:42:43.354Z,18.70
2018-02-14T10:45:10.909Z,17.27
2018-02-14T10:47:38.429Z,14.23
2018-02-14T10:50:05.991Z,14.07
2018-02-14T10:52:33.557Z,13.67
2018-02-14T10:55:07.962Z,13.47
2018-02-14T10:57:35.546Z,13.93
2018-02-14T11:00:03.205Z,16.83
2018-02-14T11:02:36.425Z,14.43
2018-02-14T11:05:09.629Z,21.53
2018-02-14T11:07:37.331Z,14.83
2018-02-14T11:10:05.259Z,12.73
2018-02-14T11:12:35.737Z,14.00
2018-02-14T11:15:03.340Z,13.27
2018-02-14T11:17:31.102Z,11.50
2018-02-14T11:19:59.792Z,12.20
2018-02-14T11:22:28.758Z,11.67
2018-02-14T11:24:57.671Z,11.23
2018-02-14T11:27:26.621Z,11.90
2018-02-14T11:29:55.578Z,12.90
2018-02-14T11:32:24.900Z,14.00
2018-02-14T11:34:52.411Z,9.93
2018-02-14T11:37:19.973Z,13.37
2018-02-14T11:39:47.510Z,10.97
2018-02-14T11:42:15.092Z,11.77
2018-02-14T11:44:43.881Z,13.60
2018-02-14T11:47:11.543Z,10.57
2018-02-14T11:49:39.112Z,15.27
2018-02-14T11:52:06.770Z,12.73
2018-02-14T11:54:34.322Z,11.40
2018-02-14T11:57:01.875Z,11.77
2018-02-14T11:59:29.398Z,12.43
2018-02-14T12:01:56.999Z,10.63
2018-02-14T12:04:24.558Z,11.90
2018-02-14T12:06:53.157Z,10.13
2018-02-14T12:09:21.259Z,12.13
2018-02-14T12:11:49.088Z,12.83
2018-02-14T12:14:17.867Z,13.53
2018-02-14T12:16:45.418Z,12.80
2018-02-14T12:19:15.440Z,12.97
2018-02-14T12:21:42.974Z,12.90
2018-02-14T12:24:11.175Z,10.17
2018-02-14T12:26:40.018Z,11.50
2018-02-14T12:29:09.366Z,10.43
2018-02-14T12:31:36.884Z,9.57
2018-02-14T12:34:06.129Z,11.17
2018-02-14T12:36:34.411Z,9.83
2018-02-14T12:39:02.466Z,11.97
2018-02-14T12:41:33.750Z,11.38
2018-02-14T12:44:04.485Z,10.50
2018-02-14T12:46:34.215Z,10.23
2018-02-14T12:49:01.794Z,10.27
2018-02-14T12:51:30.091Z,10.80
2018-02-14T12:53:58.577Z,11.60
2018-02-14T12:56:28.089Z,10.40
2018-02-14T12:58:55.754Z,9.93
2018-02-14T13:01:23.333Z,11.40
2018-02-14T13:03:50.965Z,11.27
2018-02-14T13:06:18.563Z,10.05
2018-02-14T13:08:46.123Z,10.70
2018-02-14T13:11:13.815Z,9.77
2018-02-14T13:13:42.371Z,10.37
2018-02-14T13:16:09.999Z,9.60
2018-02-14T13:18:37.754Z,11.23
2018-02-14T13:21:06.300Z,10.00
2018-02-14T13:23:34.321Z,10.47
2018-02-14T13:26:04.170Z,11.57
2018-02-14T13:28:34.268Z,9.53
2018-02-14T13:31:02.171Z,10.17
2018-02-14T13:33:30.263Z,10.23
2018-02-14T13:35:58.115Z,10.47
2018-02-14T13:38:25.890Z,9.23
2018-02-14T13:40:53.446Z,11.20
2018-02-14T13:43:21.526Z,9.43
2018-02-14T13:45:49.519Z,9.83
2018-02-14T13:48:17.050Z,10.02
2018-02-14T13:50:45.927Z,10.93
2018-02-14T13:53:13.476Z,10.43
2018-02-14T13:55:40.979Z,9.75
2018-02-14T13:58:13.294Z,10.60
2018-02-14T14:00:47.263Z,10.15
2018-02-14T14:03:15.245Z,8.77
2018-02-14T14:05:42.771Z,8.93
2018-02-14T14:08:10.903Z,8.60
2018-02-14T14:10:39.817Z,9.60
2018-02-14T14:13:07.399Z,8.47
2018-02-14T14:15:35.245Z,9.43
2018-02-14T14:18:02.803Z,8.67
2018-02-14T14:20:30.405Z,8.53
2018-02-14T14:22:57.958Z,7.77
2018-02-14T14:25:25.711Z,6.93
2018-02-14T14:27:53.211Z,8.15
2018-02-14T14:30:20.831Z,8.27
2018-02-14T14:32:49.345Z,7.80
2018-02-14T14:35:17.371Z,8.80
2018-02-14T14:37:44.894Z,8.25
2018-02-14T14:40:12.478Z,7.75
2018-02-14T14:42:40.052Z,7.75
2018-02-14T14:45:07.580Z,7.97
2018-02-14T14:47:35.430Z,8.25
2018-02-14T14:50:03.047Z,8.80
2018-02-14T14:52:30.612Z,10.87
2018-02-14T14:54:58.165Z,7.63
2018-02-14T14:57:25.834Z,8.30
2018-02-14T14:59:53.897Z,8.30
2018-02-14T15:02:21.558Z,7.97
2018-02-14T15:04:49.171Z,8.20
2018-02-14T15:07:16.718Z,6.97
2018-02-14T15:09:44.250Z,7.73
2018-02-14T15:12:12.029Z,7.12
2018-02-14T15:14:39.662Z,6.20
2018-02-14T15:17:07.637Z,6.60
2018-02-14T15:19:36.315Z,12.88
2018-02-14T15:22:03.877Z,16.63
2018-02-14T15:24:31.660Z,12.77
2018-02-14T15:26:59.346Z,21.40
2018-02-14T15:29:26.995Z,19.83
2018-02-14T15:31:54.637Z,13.98
2018-02-14T15:34:22.194Z,9.20
2018-02-14T15:36:51.704Z,7.57
2018-02-14T15:39:19.349Z,8.30
2018-02-14T15:41:46.858Z,11.20
2018-02-14T15:44:14.410Z,12.87
2018-02-14T15:46:41.936Z,8.95
2018-02-14T15:49:09.487Z,10.43
2018-02-14T15:51:37.013Z,13.43
2018-02-14T15:54:04.566Z,13.80
2018-02-14T15:56:32.090Z,9.90
2018-02-14T15:58:59.646Z,9.80
2018-02-14T16:01:27.598Z,11.10
2018-02-14T16:03:56.000Z,12.93
2018-02-14T16:06:23.552Z,8.10
2018-02-14T16:08:51.198Z,9.50
2018-02-14T16:11:18.757Z,10.25
2018-02-14T16:13:46.311Z,8.18
2018-02-14T16:16:15.890Z,11.33
2018-02-14T16:18:43.837Z,8.43
2018-02-14T16:21:13.224Z,9.87
2018-02-14T16:23:41.890Z,10.30
2018-02-14T16:26:09.640Z,13.50
2018-02-14T16:28:38.749Z,7.90
2018-02-14T16:31:07.164Z,8.33
2018-02-14T16:33:34.799Z,8.07
2018-02-14T16:36:07.079Z,8.47
2018-02-14T16:38:37.510Z,8.30
2018-02-14T16:41:05.537Z,9.03
2018-02-14T16:43:34.566Z,14.07
2018-02-14T16:46:02.591Z,13.55
2018-02-14T16:48:32.997Z,11.77
2018-02-14T16:51:04.378Z,13.03
2018-02-14T16:53:31.914Z,15.03
2018-02-14T16:55:59.422Z,15.33
2018-02-14T16:58:28.551Z,16.63
2018-02-14T17:00:56.127Z,15.82
2018-02-14T17:03:29.369Z,17.97
2018-02-14T17:05:59.834Z,14.23
2018-02-14T17:08:28.234Z,16.70
2018-02-14T17:10:55.921Z,14.10
2018-02-14T17:13:23.990Z,16.05
2018-02-14T17:15:52.618Z,11.10
2018-02-14T17:18:21.983Z,13.17
2018-02-14T17:20:52.748Z,16.37
2018-02-14T17:23:23.594Z,17.00
2018-02-14T17:25:51.375Z,15.20
2018-02-14T17:28:22.934Z,18.20
2018-02-14T17:30:52.058Z,22.40
2018-02-14T17:33:19.861Z,26.73
2018-02-14T17:35:47.738Z,26.13
2018-02-14T17:38:16.307Z,18.60
2018-02-14T17:40:45.039Z,22.00
2018-02-14T17:43:14.653Z,24.22
2018-02-14T17:45:42.565Z,21.58
2018-02-14T17:48:11.376Z,22.27
2018-02-14T17:50:39.122Z,22.23
2018-02-14T17:53:06.678Z,19.43
2018-02-14T17:55:35.182Z,21.17
2018-02-14T17:58:02.703Z,19.77
2018-02-14T18:00:30.307Z,16.53
2018-02-14T18:02:57.863Z,17.17
2018-02-14T18:05:25.478Z,17.63
2018-02-14T18:07:53.014Z,23.03
2018-02-14T18:10:20.571Z,24.07
2018-02-14T18:12:48.120Z,18.93
2018-02-14T18:15:15.689Z,24.87
2018-02-14T18:17:43.252Z,20.70
2018-02-14T18:20:10.787Z,25.77
2018-02-14T18:22:38.355Z,18.73
2018-02-14T18:25:05.880Z,17.67
2018-02-14T18:27:33.432Z,17.13
2018-02-14T18:30:00.950Z,16.23
2018-02-14T18:32:28.503Z,13.87
2018-02-14T18:34:58.484Z,12.90
2018-02-14T18:37:26.743Z,15.30
2018-02-14T18:39:54.274Z,14.67
2018-02-14T18:42:21.815Z,15.77
2018-02-14T18:44:49.348Z,13.73
2018-02-14T18:47:16.900Z,14.97
2018-02-14T18:49:44.431Z,13.40
2018-02-14T18:52:11.978Z,15.27
2018-02-14T18:54:39.509Z,14.90
2018-02-14T18:57:07.059Z,14.73
2018-02-14T18:59:35.225Z,14.63
2018-02-14T19:02:03.430Z,14.23
2018-02-14T19:04:31.019Z,18.00
2018-02-14T19:06:58.597Z,14.20
2018-02-14T19:09:26.120Z,18.40
2018-02-14T19:11:53.675Z,15.98
2018-02-14T19:14:21.535Z,17.93
2018-02-14T19:16:49.385Z,18.10
2018-02-14T19:19:17.303Z,15.87
2018-02-14T19:21:44.833Z,15.80
2018-02-14T19:24:12.359Z,14.13
2018-02-14T19:26:39.935Z,16.77
2018-02-14T19:29:07.753Z,14.37
2018-02-14T19:31:35.319Z,18.35
2018-02-14T19:34:02.845Z,13.35
2018-02-14T19:36:30.414Z,14.77
2018-02-14T19:38:57.947Z,13.97
2018-02-14T19:41:25.477Z,12.13
2018-02-14T19:43:53.022Z,13.60
2018-02-14T19:46:22.657Z,13.33
2018-02-14T19:48:52.482Z,15.47
2018-02-14T19:51:20.124Z,12.00
2018-02-14T19:53:47.992Z,13.23
2018-02-14T19:56:16.025Z,13.47
2018-02-14T19:58:43.715Z,13.17
2018-02-14T20:01:12.999Z,15.38
2018-02-14T20:03:40.568Z,13.37
2018-02-14T20:06:09.050Z,17.93
2018-02-14T20:08:36.576Z,13.27
2018-02-14T20:11:04.940Z,12.60
2018-02-14T20:13:32.905Z,11.73
2018-02-14T20:16:03.366Z,14.47
2018-02-14T20:18:32.210Z,17.93
2018-02-14T20:21:00.364Z,15.03
2018-02-14T20:23:29.597Z,15.30
2018-02-14T20:25:58.854Z,15.33
2018-02-14T20:28:26.671Z,13.10
2018-02-14T20:30:54.194Z,14.57
2018-02-14T20:33:21.775Z,20.48
2018-02-14T20:35:49.300Z,21.80
2018-02-14T20:38:16.902Z,21.10
2018-02-14T20:40:44.426Z,19.43
2018-02-14T20:43:11.977Z,20.83
2018-02-14T20:45:40.120Z,25.00
2018-02-14T20:48:08.626Z,21.57
2018-02-14T20:50:38.508Z,20.90
2018-02-14T20:53:07.878Z,20.80
2018-02-14T20:55:36.497Z,19.80
2018-02-14T20:58:05.027Z,19.77
2018-02-14T21:00:35.177Z,18.90
2018-02-14T21:03:04.471Z,19.27
2018-02-14T21:05:33.136Z,19.53
2018-02-14T21:08:00.754Z,20.27
2018-02-14T21:10:29.151Z,22.97
2018-02-14T21:12:57.539Z,22.23
2018-02-14T21:15:27.438Z,21.83
2018-02-14T21:17:55.793Z,21.13
2018-02-14T21:20:23.365Z,21.53
2018-02-14T21:22:50.950Z,20.55
2018-02-14T21:25:18.472Z,22.47
2018-02-14T21:27:46.046Z,21.67
2018-02-14T21:30:14.693Z,21.40
2018-02-14T21:32:42.919Z,20.53
2018-02-14T21:35:10.550Z,19.00
2018-02-14T21:37:38.253Z,23.10
2018-02-14T21:40:06.972Z,21.55
2018-02-14T21:42:35.135Z,24.43
2018-02-14T21:45:03.915Z,19.07
2018-02-14T21:47:34.364Z,23.43
2018-02-14T21:50:03.430Z,20.37
2018-02-14T21:52:31.142Z,25.07
2018-02-14T21:55:01.068Z,21.47
2018-02-14T21:57:28.775Z,23.63
2018-02-14T21:59:59.249Z,22.13
2018-02-14T22:02:28.499Z,20.37
2018-02-14T22:04:56.083Z,25.23
2018-02-14T22:07:25.998Z,20.07
2018-02-14T22:09:53.662Z,26.50
2018-02-14T22:12:21.211Z,23.90
2018-02-14T22:14:48.740Z,24.55
2018-02-14T22:17:17.537Z,25.87
2018-02-14T22:19:45.241Z,27.13
2018-02-14T22:22:14.068Z,21.17
2018-02-14T22:24:42.198Z,24.77
2018-02-14T22:27:10.301Z,24.77
2018-02-14T22:29:40.467Z,23.63
2018-02-14T22:32:08.549Z,25.23
2018-02-14T22:34:38.657Z,21.40
2018-02-14T22:37:07.820Z,24.83
2018-02-14T22:39:35.589Z,27.10
2018-02-14T22:42:04.960Z,23.70
2018-02-14T22:44:33.389Z,24.73
2018-02-14T22:47:02.823Z,27.00
2018-02-14T22:49:31.247Z,28.43
2018-02-14T22:52:01.952Z,29.57
2018-02-14T22:54:30.449Z,29.47
2018-02-14T22:56:58.330Z,31.00
2018-02-14T22:59:26.880Z,32.40
2018-02-14T23:01:55.584Z,36.80
2018-02-14T23:04:23.655Z,37.93
2018-02-14T23:06:52.363Z,31.08
2018-02-14T23:09:22.237Z,31.10
2018-02-14T23:11:51.016Z,24.60
2018-02-14T23:14:19.263Z,26.57
2018-02-14T23:16:48.498Z,29.33
2018-02-14T23:19:17.044Z,28.63
2018-02-14T23:21:46.208Z,32.85
2018-02-14T23:24:13.977Z,27.17
2018-02-14T23:26:43.175Z,26.25
2018-02-14T23:29:12.674Z,25.60
2018-02-14T23:31:40.962Z,26.10
2018-02-14T23:34:08.984Z,23.62
2018-02-14T23:36:38.646Z,27.85
2018-02-14T23:39:06.316Z,27.20
2018-02-14T23:41:36.564Z,26.47
2018-02-14T23:44:04.847Z,26.60
2018-02-14T23:46:34.034Z,33.20
2018-02-14T23:49:01.955Z,56.07
2018-02-14T23:51:34.847Z,64.60
2018-02-14T23:54:03.206Z,54.03
2018-02-14T23:56:30.760Z,41.07
2018-02-14T23:58:58.392Z,32.03
